Weather observations for the past three days for
Elbert Mountain - Monument Pass
Imperial (Metric)
Date Time (mdt) Wind (mph) Vis. (mi.) Weather Sky Cond. Temperature (ºF) Relative Humidity Wind Chill (°F) Heat Index (°F) Pressure Precipitation (in)
Air Dwpt 6 hour altimeter (in) sea level (mb) 1 hr 3 hr 6 hr
Max. Min.
10 08:35 Calm 10.00 Overcast SCT009 BKN013 OVC020 42.8 39.2 87% 30.34 0.0
10 08:15 Calm 10.00 Overcast SCT010 SCT015 OVC030 42.8 39.2 87% 30.34 0.0
10 07:55 S 3 10.00 Overcast OVC030 42.8 41 93% 30.33 0.0
10 07:35 S 5 10.00 Overcast OVC026 41 41 100% 38 30.33 0.0
10 07:15 Calm 10.00 Overcast SCT004 OVC024 41 41 100% 30.33 0.0
10 06:55 Calm 10.00 Overcast BKN004 OVC026 41 41 100% 30.33 0.0
10 06:35 Calm 10.00 Overcast BKN004 OVC026 41 41 100% 30.32 0.0
10 06:15 Calm 10.00 Overcast BKN004 BKN015 OVC026 41 39.2 93% 30.32 0.0
10 05:55 Calm 10.00 Overcast BKN004 BKN010 OVC015 41 39.2 93% 30.31 0.0
10 05:35 NE 3 10.00 Overcast SCT004 OVC008 41 39.2 93% 30.31 0.0
10 05:15 Calm 10.00 Overcast BKN004 BKN009 OVC014 41 41 100% 30.31 0.0
10 04:55 Calm 10.00 Overcast SCT004 SCT010 OVC016 41 39.2 93% 30.31 0.0
10 04:35 Calm 10.00 Overcast SCT006 BKN009 OVC016 41 39.2 93% 30.3 0.0
10 04:15 Calm 10.00 Overcast BKN006 OVC014 41 39.2 93% 30.3 0.0
10 03:35 Calm 10.00 Overcast SCT002 OVC011 41 39.2 93% 30.29 0.0
10 03:15 N 3 5.00 Fog/Mist BKN002 OVC007 39.2 39.2 100% 30.29 0.0
10 02:55 Calm 3.00 Light Rain OVC002 39.2 39.2 100% 30.29 0.0
10 02:35 N 3 2.50 Fog/Mist OVC002 39.2 39.2 100% 30.29 0.0
10 02:15 Calm 2.50 Fog/Mist OVC002 39.2 39.2 100% 30.29 0.0
10 01:55 N 7 5.00 Fog/Mist OVC002 39.2 39.2 100% 35 30.29 0.0
10 01:35 N 7 5.00 Fog/Mist OVC002 39.2 39.2 100% 35 30.28 0.0
10 01:15 N 8 5.00 Light Drizzle OVC002 41 39.2 93% 36 30.29 0.0
10 00:55 N 10 5.00 Drizzle OVC004 41 39.2 93% 35 30.29 0.0 0.01
10 00:35 N 9 7.00 Drizzle OVC004 41 41 100% 36 30.29 0.0
10 00:15 NW 10 10.00 Light Drizzle OVC006 41 41 100% 35 30.3 0.0
09 23:55 N 10 G 20 10.00 Overcast OVC006 41 39.2 93% 35 30.29 0.0
09 23:35 N 10 G 17 10.00 Overcast OVC006 42.8 39.2 87% 38 30.27 0.0
09 23:15 N 10 10.00 Overcast OVC006 41 41 100% 35 30.28 0.0
09 22:55 N 14 G 20 10.00 Overcast OVC006 41 41 100% 34 30.25 0.0
09 22:35 N 18 G 23 10.00 Overcast OVC008 42.8 41 93% 35 30.25 0.0
09 22:15 N 14 G 24 10.00 Overcast OVC008 42.8 41 93% 36 30.29 0.0
09 21:55 N 16 G 22 10.00 Overcast OVC010 42.8 41 93% 36 30.28 0.0
09 21:35 N 17 G 24 10.00 Overcast OVC014 42.8 39.2 87% 35 30.25 0.0
09 21:15 N 17 G 25 10.00 Mostly Cloudy BKN019 BKN027 42.8 39.2 87% 35 30.24 0.0
09 20:55 N 21 G 30 10.00 Light Rain and Breezy SCT027 SCT050 BKN070 44.6 37.4 76% 37 30.21 0.0
09 20:35 N 18 G 30 10.00 Thunderstorm Light Rain in Vicinity BKN070 OVC100 48.2 37.4 66% 42 30.17 0.0
09 20:15 N 25 G 31 10.00 Thunderstorm in Vicinity and Breezy BKN100 BKN110 55.4 35.6 47% 30.14 0.0
09 19:55 E 7 10.00 Mostly Cloudy BKN110 57.2 35.6 44% 30.08 0.0
09 19:35 NE 7 10.00 Mostly Cloudy BKN120 59 32 36% 30.08 0.0
09 19:15 NE 3 10.00 Partly Cloudy SCT120 59 32 36% 30.07 0.0
09 18:55 E 7 10.00 Mostly Cloudy BKN120 60.8 32 34% 30.05 0.0
09 18:35 Calm 10.00 Partly Cloudy SCT120 60.8 32 34% 30.06 0.0
09 18:15 E 5 10.00 Fair CLR 62.6 32 32% 30.04 0.0
09 17:55 NE 5 10.00 Fair CLR 62.6 28.4 27% 30.05 0.0
09 17:35 NE 8 10.00 Fair CLR 64.4 30.2 28% 30.05 0.0
09 17:15 E 7 10.00 Fair CLR 64.4 28.4 26% 30.05 0.0
09 16:55 NE 10 10.00 Partly Cloudy SCT120 64.4 28.4 26% 30.04 0.0
09 16:35 Calm 10.00 Mostly Cloudy BKN110 62.6 28.4 27% 30.04 0.0
09 16:15 N 9 10.00 Partly Cloudy SCT120 62.6 28.4 27% 30.04 0.0
09 15:55 N 9 10.00 Partly Cloudy SCT110 62.6 28.4 27% 30.03 0.0
09 15:35 N 14 G 25 10.00 Mostly Cloudy SCT100 BKN120 62.6 28.4 27% 30.03 0.0
09 15:15 N 12 10.00 Partly Cloudy SCT120 64.4 28.4 26% 30.04 0.0
09 14:55 N 8 10.00 Fair CLR 64.4 26.6 24% 30.04 0.0
09 14:35 N 9 10.00 Fair CLR 68 28.4 23% 30.04 0.0
09 14:15 N 7 10.00 Fair CLR 68 26.6 21% 30.05 0.0
09 13:55 NE 9 G 24 10.00 Fair CLR 66.2 26.6 22% 30.05 0.0
09 13:35 N 9 10.00 Fair CLR 66.2 23 19% 30.05 0.0
09 13:15 NW 10 G 17 10.00 Fair CLR 66.2 23 19% 30.06 0.0
09 12:55 N 12 G 20 10.00 Fair CLR 64.4 24.8 22% 30.06 0.0
09 12:35 N 15 G 23 10.00 Fair CLR 64.4 26.6 24% 30.06 0.0
09 12:15 N 6 G 20 10.00 Fair CLR 64.4 23 21% 30.06 0.0
09 11:55 N 15 G 22 10.00 Fair CLR 64.4 26.6 24% 30.06 0.0
09 11:35 N 13 G 24 10.00 Fair CLR 62.6 23 22% 30.07 0.0
09 11:15 N 15 G 25 10.00 Fair CLR 62.6 23 22% 30.07 0.0
09 10:55 N 15 G 25 10.00 Fair CLR 62.6 23 22% 30.07 0.0
09 10:35 N 10 G 21 10.00 Fair CLR 62.6 24.8 24% 30.07 0.0
09 10:15 NW 16 G 29 10.00 Fair CLR 60.8 23 23% 30.06 0.0
09 09:55 NW 21 G 29 10.00 Fair and Breezy CLR 60.8 26.6 27% 30.06 0.0
09 09:35 NW 23 G 29 10.00 Fair and Breezy CLR 60.8 21.2 22% 30.07 0.0
09 09:15 NW 14 G 20 10.00 Fair CLR 59 28.4 31% 30.07 0.0
09 08:55 W 15 10.00 Fair CLR 59 28.4 31% 30.07 0.0
09 08:35 NW 16 G 21 10.00 Fair CLR 59 32 36% 30.07 0.0
09 08:15 W 8 10.00 Fair CLR 53.6 35.6 51% 30.07 0.0
09 07:55 SW 6 10.00 Fair CLR 51.8 33.8 50% 30.07 0.0
09 07:35 SW 5 10.00 Fair CLR 50 35.6 58% 49 30.06 0.0
09 07:15 SW 7 10.00 Fair CLR 53.6 33.8 47% 30.06 0.0
09 06:55 SW 6 10.00 Fair CLR 48.2 33.8 58% 46 30.06 0.0
09 06:35 SW 12 10.00 Fair CLR 46.4 33.8 62% 42 30.04 0.0
09 06:15 SW 10 10.00 Fair CLR 44.6 33.8 66% 40 30.04 0.0
09 05:55 SW 9 10.00 Fair CLR 44.6 33.8 66% 40 30.03 0.0
09 05:35 S 8 10.00 Fair CLR 42.8 33.8 71% 39 30.03 0.0
09 05:15 S 6 10.00 Fair CLR 44.6 33.8 66% 42 30.03 0.0
09 04:55 S 6 10.00 Fair CLR 44.6 33.8 66% 42 30.03 0.0
09 04:35 S 5 10.00 Fair CLR 42.8 33.8 71% 41 30.03 0.0
09 04:15 S 8 10.00 Fair CLR 44.6 33.8 66% 41 30.03 0.0
09 03:55 S 12 10.00 Fair CLR 46.4 33.8 62% 42 30.02 0.0
09 03:35 S 13 10.00 Fair CLR 46.4 33.8 62% 41 30.02 0.0
09 03:15 S 13 G 20 10.00 Fair CLR 46.4 33.8 62% 41 30.03 0.0
09 02:55 S 14 G 18 10.00 Fair CLR 46.4 33.8 62% 41 30.03 0.0
09 02:35 S 14 10.00 Fair CLR 46.4 33.8 62% 41 30.03 0.0
09 02:15 S 13 10.00 Fair CLR 46.4 33.8 62% 41 30.03 0.0
09 01:55 S 15 G 21 10.00 Partly Cloudy SCT110 46.4 33.8 62% 41 30.03 0.0
09 01:35 S 16 10.00 Partly Cloudy SCT110 48.2 33.8 58% 43 30.04 0.0
09 01:15 S 13 10.00 Fair CLR 46.4 33.8 62% 41 30.04 0.0
09 00:55 S 13 10.00 Fair CLR 46.4 33.8 62% 41 30.05 0.0
09 00:35 S 12 10.00 Fair CLR 44.6 33.8 66% 39 30.06 0.0
09 00:15 S 8 10.00 Fair CLR 42.8 35.6 76% 39 30.08 0.0
08 23:55 S 8 10.00 Partly Cloudy SCT110 44.6 35.6 71% 41 30.08 0.0
08 23:35 S 9 10.00 Partly Cloudy SCT095 SCT120 44.6 35.6 71% 40 30.09 0.0
08 23:15 S 7 10.00 Fair CLR 44.6 35.6 71% 41 30.09 0.0
08 22:55 S 10 10.00 Partly Cloudy SCT090 46.4 35.6 66% 42 30.09 0.0
08 22:35 S 9 10.00 Partly Cloudy SCT090 44.6 37.4 76% 40 30.09 0.0
08 22:15 SE 6 10.00 Fair CLR 44.6 35.6 71% 42 30.1 0.0
08 21:55 SE 6 10.00 Fair CLR 46.4 35.6 66% 44 30.09 0.0
08 21:35 SE 6 10.00 Fair CLR 46.4 37.4 71% 44 30.09 0.0
08 21:15 SE 7 10.00 Fair CLR 48.2 37.4 66% 46 30.09 0.0
08 20:55 SE 6 10.00 Fair CLR 46.4 37.4 71% 44 30.08 0.0
08 20:35 SE 5 10.00 Fair CLR 48.2 37.4 66% 47 30.08 0.0
08 20:15 E 5 10.00 Fair CLR 50 37.4 62% 49 30.07 0.0
08 19:55 E 5 10.00 Fair CLR 51.8 37.4 58% 30.06 0.0
08 19:35 E 8 10.00 Fair CLR 55.4 37.4 51% 30.05 0.0
08 19:15 E 5 10.00 Fair CLR 55.4 37.4 51% 30.06 0.0
08 18:35 E 9 10.00 Fair CLR 59 37.4 45% 30.05 0.0
08 18:15 E 8 10.00 Partly Cloudy SCT060 59 35.6 42% 30.06 0.0
08 17:55 E 7 10.00 Fair CLR 59 35.6 42% 30.06 0.0
08 17:35 E 6 10.00 Fair CLR 59 35.6 42% 30.05 0.0
08 17:15 E 9 10.00 Fair CLR 60.8 37.4 42% 30.05 0.0
08 16:55 NE 8 10.00 Fair CLR 60.8 37.4 42% 30.05 0.0
08 16:15 NE 9 10.00 Fair CLR 60.8 37.4 42% 30.05 0.0
08 15:55 N 5 10.00 Fair CLR 60.8 35.6 39% 30.06 0.0
08 15:35 NE 9 10.00 Fair CLR 60.8 35.6 39% 30.06 0.0
08 15:15 NE 7 10.00 Fair CLR 60.8 35.6 39% 30.07 0.0
08 14:55 E 5 10.00 Fair CLR 59 35.6 42% 30.07 0.0
08 14:35 E 7 10.00 Fair CLR 59 35.6 42% 30.07 0.0
08 14:15 NE 6 10.00 Fair CLR 59 37.4 45% 30.08 0.0
08 13:55 N 8 G 16 10.00 Fair CLR 59 35.6 42% 30.08 0.0
08 13:35 N 13 10.00 Fair CLR 59 35.6 42% 30.08 0.0
08 13:15 N 8 G 17 10.00 Fair CLR 59 33.8 39% 30.09 0.0
08 12:55 N 9 G 18 10.00 Fair CLR 59 33.8 39% 30.08 0.0
08 12:35 N 10 10.00 Fair CLR 59 35.6 42% 30.09 0.0
08 12:15 N 7 10.00 Fair CLR 55.4 35.6 47% 30.1 0.0
08 11:55 Calm 10.00 Fair CLR 55.4 35.6 47% 30.11 0.0
08 11:35 NE 5 10.00 Fair CLR 53.6 35.6 51% 30.11 0.0
08 11:15 Calm 10.00 Fair CLR 53.6 35.6 51% 30.11 0.0
08 10:55 N 6 10.00 Fair CLR 51.8 37.4 58% 30.12 0.0
08 10:35 NW 7 10.00 Fair CLR 51.8 35.6 54% 30.12 0.0
08 10:15 NW 6 10.00 Fair CLR 51.8 37.4 58% 30.12 0.0
08 09:55 NW 6 10.00 Fair CLR 50 37.4 62% 48 30.12 0.0
08 09:35 NW 5 10.00 Fair CLR 48.2 37.4 66% 47 30.12 0.0
08 09:15 W 5 10.00 Partly Cloudy SCT010 46.4 39.2 76% 45 30.12 0.0
08 08:55 W 9 10.00 Overcast OVC010 44.6 41 87% 40 30.14 0.0
08 08:35 NW 8 10.00 Overcast OVC010 42.8 39.2 87% 39 30.14 0.0
08 08:15 W 3 10.00 Overcast SCT012 OVC022 41 37.4 87% 30.14 0.0
08 07:55 NW 6 10.00 Overcast SCT007 SCT014 OVC020 41 37.4 87% 38 30.14 0.0
08 07:15 N 7 10.00 Mostly Cloudy BKN012 39.2 37.4 93% 35 30.12 0.0
08 06:35 N 7 10.00 Mostly Cloudy BKN004 37.4 35.6 93% 33 30.09 0.0
08 06:15 N 7 10.00 Partly Cloudy SCT004 SCT008 37.4 35.6 93% 33 30.08 0.0
08 05:55 N 7 10.00 Fair CLR 37.4 33.8 87% 33 30.07 0.0
08 05:35 SW 9 10.00 Fair CLR 35.6 33.8 93% 29 30.05 0.0
08 05:15 S 8 10.00 Fair CLR 33.8 32 93% 28 30.05 0.0
08 04:55 SW 5 10.00 Fair CLR 33.8 32 93% 30 30.05 0.0
08 04:35 Calm 10.00 Fair CLR 33.8 32 93% 30.06 0.0
08 04:15 Calm 10.00 Fair CLR 35.6 32 87% 30.06 0.0
08 03:55 E 3 10.00 Fair CLR 37.4 33.8 87% 30.05 0.0
08 03:35 NE 3 10.00 Fair CLR 35.6 32 87% 30.05 0.0
08 03:15 N 6 10.00 Fair CLR 35.6 32 87% 31 30.06 0.0
08 02:55 Calm 10.00 Fair CLR 35.6 32 87% 30.05 0.0
08 02:35 S 5 10.00 Fair CLR 37.4 33.8 87% 34 30.06 0.0
08 02:15 S 8 10.00 Partly Cloudy SCT090 SCT110 37.4 33.8 87% 32 30.06 0.0
08 01:55 E 5 10.00 Mostly Cloudy SCT090 BKN110 41 35.6 81% 38 30.08 0.0
08 01:35 E 6 10.00 Partly Cloudy SCT120 41 35.6 81% 38 30.08 0.0
08 01:15 NE 5 10.00 Fair CLR 41 33.8 76% 38 30.09 0.0
08 00:55 SE 5 10.00 Fair CLR 41 33.8 76% 38 30.08 0.0
08 00:35 E 3 10.00 Fair CLR 42.8 33.8 71% 30.08 0.0
08 00:15 E 6 10.00 Fair CLR 42.8 35.6 76% 40 30.08 0.0
07 23:55 NE 5 10.00 Partly Cloudy SCT085 44.6 33.8 66% 43 30.08 0.0
07 23:35 Calm 10.00 Mostly Cloudy BKN095 46.4 33.8 62% 30.08 0.0
07 23:15 E 5 10.00 Partly Cloudy SCT095 46.4 33.8 62% 45 30.07 0.0
07 22:55 SE 6 10.00 Fair CLR 46.4 35.6 66% 44 30.06 0.0
07 22:35 SE 5 10.00 Fair CLR 46.4 33.8 62% 45 30.07 0.0
07 22:15 SE 6 10.00 Partly Cloudy SCT110 48.2 33.8 58% 46 30.07 0.0
07 21:55 E 3 10.00 Overcast SCT070 BKN090 OVC110 50 33.8 54% 30.07 0.0
07 21:35 Calm 10.00 Overcast SCT080 OVC090 50 35.6 58% 30.09 0.0
07 21:15 NE 6 10.00 Overcast OVC090 51.8 33.8 50% 30.07 0.0
07 20:55 NW 3 10.00 Overcast OVC100 51.8 32 47% 30.05 0.0
07 20:35 Calm 10.00 Overcast OVC100 50 33.8 54% 30.04 0.0
07 20:15 W 3 10.00 Overcast OVC110 50 33.8 54% 30.04 0.0
07 19:35 Calm 10.00 Mostly Cloudy BKN110 53.6 32 44% 30.03 0.0
07 19:15 Calm 10.00 Mostly Cloudy BKN110 55.4 32 41% 30.02 0.0
07 18:55 NW 6 10.00 Overcast OVC110 57.2 30.2 36% 30.02 0.0
07 18:35 Calm 10.00 Overcast OVC110 55.4 32 41% 30.02 0.0
07 18:15 NW 5 10.00 Mostly Cloudy BKN110 57.2 28.4 33% 30.02 0.0
07 17:55 W 9 10.00 Fair CLR 59 30.2 34% 30.02 0.0
07 17:35 NW 12 10.00 Fair CLR 59 28.4 31% 30.02 0.0
07 17:15 NW 10 G 17 10.00 Fair CLR 59 28.4 31% 30.02 0.0
07 16:55 NW 10 10.00 Fair CLR 59 28.4 31% 30.02 0.0
07 16:35 W 12 10.00 Fair CLR 60.8 30.2 31% 30.03 0.0
07 16:15 NW 14 G 23 10.00 Fair CLR 60.8 30.2 31% 30.03 0.0
07 15:55 NW 15 G 23 10.00 Fair CLR 60.8 32 34% 30.03 0.0
07 15:35 NW 17 G 25 10.00 Fair CLR 60.8 30.2 31% 30.04 0.0
07 15:15 NW 9 G 23 10.00 Fair CLR 59 30.2 34% 30.05 0.0
07 14:55 NW 12 G 21 10.00 Fair CLR 59 28.4 31% 30.05 0.0
07 14:35 W 13 G 20 10.00 Fair CLR 60.8 30.2 31% 30.06 0.0
07 14:15 NW 16 G 21 10.00 Fair CLR 59 30.2 34% 30.07 0.0
07 13:35 W 12 10.00 Fair CLR 59 30.2 34% 30.08 0.0
07 13:15 W 14 10.00 Fair CLR 59 26.6 29% 30.09 0.0
07 12:55 W 9 10.00 Partly Cloudy SCT085 59 28.4 31% 30.09 0.0
07 12:35 W 7 10.00 Fair CLR 57.2 28.4 33% 30.09 0.0
07 12:15 W 9 10.00 Fair CLR 55.4 26.6 33% 30.09 0.0
07 11:55 W 8 10.00 Fair CLR 55.4 26.6 33% 30.1 0.0
07 11:15 SW 6 10.00 Fair CLR 55.4 28.4 36% 30.11 0.0
07 10:55 W 9 10.00 Fair CLR 55.4 26.6 33% 30.12 0.0
07 10:35 W 8 10.00 Fair CLR 55.4 30.2 38% 30.12 0.0
07 09:55 W 12 10.00 Fair CLR 50 30.2 47% 46 30.13 0.0
07 09:35 SW 12 10.00 Fair CLR 50 30.2 47% 46 30.13 0.0
07 09:15 SW 12 10.00 Fair CLR 48.2 30.2 50% 44 30.12 0.0
07 08:55 SW 12 10.00 Fair CLR 46.4 30.2 53% 42 30.12 0.0
Date Time (mdt) Wind (mph) Vis. (mi.) Weather Sky Cond. Air Dwpt Max. Min. Relative Humidity Wind Chill (°F) Heat Index (°F) altimeter (in) sea level (mb) 1 hr 3 hr 6 hr
6 hour
Temperature (ºF) Pressure Precipitation (in)